KDFI/DFI METAR and TAF weather

Enter ICAO airport designator
Station Type Date Time Source
KDFI METAR 2019/07/20 19:53 UTC NOAA

KDFI 201953Z AUTO 24011G23KT 10SM 34/23 A2989 RMK AO2 SLP115 T03440228 $


Station Type Date Time Source
KDFI Decoded METAR 2019/07/20 19:53 UTC NOAA

DEFIANCE MEMORIAL AIRPORT, OH, United States (KDFI) 41-20N 84-26W 219M
Jul 20, 2019 - 03:53 PM EDT / 2019.07.20 1953 UTC
Wind: from the WSW (240 degrees) at 13 MPH (11 KT) gusting to 26 MPH (23 KT):0
Visibility: 10 mile(s):0
Temperature: 93.9 F (34.4 C)
Heat index: 103.3 F (39.6 C):1
Dew Point: 73.0 F (22.8 C)
Relative Humidity: 51%
Pressure (altimeter): 29.89 in. Hg (1012 hPa)
ob: KDFI 201953Z AUTO 24011G23KT 10SM 34/23 A2989 RMK AO2 SLP115 T03440228
cycle: 20

Station Type Date Time Source
KDFI TAF UTC NOAA

Error!

Example: see airport list